sensor_id;sensor_type;location;lat;lon;timestamp;P1;durP1;ratioP1;P2;durP2;ratioP2
16113;SDS011;8161;-33.910;151.156;2023-07-29T00:01:20;6.00;;;3.30;;
16113;SDS011;8161;-33.910;151.156;2023-07-29T00:03:47;4.90;;;2.75;;
16113;SDS011;8161;-33.910;151.156;2023-07-29T00:06:15;4.40;;;2.40;;
16113;SDS011;8161;-33.910;151.156;2023-07-29T00:08:42;4.75;;;2.50;;
16113;SDS011;8161;-33.910;151.156;2023-07-29T00:11:09;5.95;;;2.38;;
16113;SDS011;8161;-33.910;151.156;2023-07-29T00:13:36;4.85;;;2.60;;
16113;SDS011;8161;-33.910;151.156;2023-07-29T00:16:04;6.07;;;2.47;;
16113;SDS011;8161;-33.910;151.156;2023-07-29T00:18:31;4.97;;;2.47;;
16113;SDS011;8161;-33.910;151.156;2023-07-29T00:20:58;5.70;;;2.55;;
16113;SDS011;8161;-33.910;151.156;2023-07-29T00:23:26;6.00;;;2.40;;
16113;SDS011;8161;-33.910;151.156;2023-07-29T00:25:53;5.50;;;2.37;;
16113;SDS011;8161;-33.910;151.156;2023-07-29T00:28:20;4.30;;;2.50;;
16113;SDS011;8161;-33.910;151.156;2023-07-29T00:30:47;4.43;;;1.73;;
16113;SDS011;8161;-33.910;151.156;2023-07-29T00:33:14;4.85;;;1.95;;
16113;SDS011;8161;-33.910;151.156;2023-07-29T00:35:42;4.22;;;1.40;;
16113;SDS011;8161;-33.910;151.156;2023-07-29T00:38:09;5.65;;;1.65;;
16113;SDS011;8161;-33.910;151.156;2023-07-29T00:40:36;2.47;;;1.20;;
16113;SDS011;8161;-33.910;151.156;2023-07-29T00:43:04;2.38;;;0.90;;
16113;SDS011;8161;-33.910;151.156;2023-07-29T00:45:32;4.20;;;1.00;;
16113;SDS011;8161;-33.910;151.156;2023-07-29T00:48:00;2.57;;;1.00;;
16113;SDS011;8161;-33.910;151.156;2023-07-29T00:50:28;2.63;;;0.87;;
16113;SDS011;8161;-33.910;151.156;2023-07-29T00:52:57;2.67;;;0.90;;
16113;SDS011;8161;-33.910;151.156;2023-07-29T00:55:24;3.95;;;0.90;;
16113;SDS011;8161;-33.910;151.156;2023-07-29T00:57:52;4.35;;;0.88;;
16113;SDS011;8161;-33.910;151.156;2023-07-29T01:00:20;2.10;;;0.70;;
16113;SDS011;8161;-33.910;151.156;2023-07-29T01:02:48;3.13;;;0.90;;
16113;SDS011;8161;-33.910;151.156;2023-07-29T01:05:15;0.97;;;0.60;;
16113;SDS011;8161;-33.910;151.156;2023-07-29T01:10:39;2.47;;;0.90;;
16113;SDS011;8161;-33.910;151.156;2023-07-29T01:15:55;1.48;;;0.80;;
16113;SDS011;8161;-33.910;151.156;2023-07-29T01:18:31;1.08;;;0.70;;
16113;SDS011;8161;-33.910;151.156;2023-07-29T01:21:03;2.55;;;0.75;;
16113;SDS011;8161;-33.910;151.156;2023-07-29T01:23:30;2.25;;;0.82;;
16113;SDS011;8161;-33.910;151.156;2023-07-29T01:25:59;2.75;;;0.73;;
16113;SDS011;8161;-33.910;151.156;2023-07-29T01:28:26;4.10;;;0.77;;
16113;SDS011;8161;-33.910;151.156;2023-07-29T01:30:57;2.20;;;0.70;;
16113;SDS011;8161;-33.910;151.156;2023-07-29T01:33:48;3.88;;;1.10;;
16113;SDS011;8161;-33.910;151.156;2023-07-29T01:36:20;1.98;;;1.10;;
16113;SDS011;8161;-33.910;151.156;2023-07-29T01:38:49;3.08;;;1.00;;
16113;SDS011;8161;-33.910;151.156;2023-07-29T01:41:18;2.55;;;0.80;;
16113;SDS011;8161;-33.910;151.156;2023-07-29T01:43:46;2.47;;;0.90;;
16113;SDS011;8161;-33.910;151.156;2023-07-29T01:46:18;5.10;;;1.10;;
16113;SDS011;8161;-33.910;151.156;2023-07-29T01:48:48;2.33;;;0.73;;
16113;SDS011;8161;-33.910;151.156;2023-07-29T01:51:15;2.25;;;0.80;;
16113;SDS011;8161;-33.910;151.156;2023-07-29T01:53:43;2.20;;;0.90;;
16113;SDS011;8161;-33.910;151.156;2023-07-29T01:56:10;2.33;;;0.93;;
16113;SDS011;8161;-33.910;151.156;2023-07-29T01:58:37;3.03;;;1.08;;
16113;SDS011;8161;-33.910;151.156;2023-07-29T02:01:04;2.50;;;0.90;;
16113;SDS011;8161;-33.910;151.156;2023-07-29T02:03:31;3.10;;;1.00;;
16113;SDS011;8161;-33.910;151.156;2023-07-29T02:05:59;2.08;;;0.80;;
16113;SDS011;8161;-33.910;151.156;2023-07-29T02:08:26;1.70;;;0.85;;
16113;SDS011;8161;-33.910;151.156;2023-07-29T02:10:53;2.40;;;0.73;;
16113;SDS011;8161;-33.910;151.156;2023-07-29T02:13:20;1.65;;;0.80;;
16113;SDS011;8161;-33.910;151.156;2023-07-29T02:15:48;3.75;;;0.55;;
16113;SDS011;8161;-33.910;151.156;2023-07-29T02:18:15;2.50;;;0.70;;
16113;SDS011;8161;-33.910;151.156;2023-07-29T02:20:42;1.08;;;0.50;;
16113;SDS011;8161;-33.910;151.156;2023-07-29T02:23:15;2.00;;;0.70;;
16113;SDS011;8161;-33.910;151.156;2023-07-29T02:25:45;2.60;;;0.60;;
16113;SDS011;8161;-33.910;151.156;2023-07-29T02:28:12;2.85;;;0.60;;
16113;SDS011;8161;-33.910;151.156;2023-07-29T02:30:40;2.50;;;0.90;;
16113;SDS011;8161;-33.910;151.156;2023-07-29T02:33:10;1.63;;;0.98;;
16113;SDS011;8161;-33.910;151.156;2023-07-29T02:35:39;2.45;;;1.10;;
16113;SDS011;8161;-33.910;151.156;2023-07-29T02:38:07;1.80;;;1.00;;
16113;SDS011;8161;-33.910;151.156;2023-07-29T02:40:34;3.10;;;1.00;;
16113;SDS011;8161;-33.910;151.156;2023-07-29T02:43:01;3.00;;;0.75;;
16113;SDS011;8161;-33.910;151.156;2023-07-29T02:45:29;2.78;;;1.00;;
16113;SDS011;8161;-33.910;151.156;2023-07-29T02:47:56;1.60;;;0.70;;
16113;SDS011;8161;-33.910;151.156;2023-07-29T02:50:23;3.97;;;1.00;;
16113;SDS011;8161;-33.910;151.156;2023-07-29T02:52:51;3.03;;;0.95;;
16113;SDS011;8161;-33.910;151.156;2023-07-29T02:55:18;4.05;;;1.00;;
16113;SDS011;8161;-33.910;151.156;2023-07-29T02:57:45;2.03;;;1.10;;
16113;SDS011;8161;-33.910;151.156;2023-07-29T03:00:12;1.88;;;1.20;;
16113;SDS011;8161;-33.910;151.156;2023-07-29T03:02:40;2.88;;;1.38;;
16113;SDS011;8161;-33.910;151.156;2023-07-29T03:05:08;2.37;;;1.23;;
16113;SDS011;8161;-33.910;151.156;2023-07-29T03:07:35;2.85;;;1.30;;
16113;SDS011;8161;-33.910;151.156;2023-07-29T03:10:02;2.35;;;1.27;;
16113;SDS011;8161;-33.910;151.156;2023-07-29T03:12:31;2.47;;;1.17;;
16113;SDS011;8161;-33.910;151.156;2023-07-29T03:14:58;2.88;;;1.60;;
16113;SDS011;8161;-33.910;151.156;2023-07-29T03:17:29;2.42;;;1.48;;
16113;SDS011;8161;-33.910;151.156;2023-07-29T03:19:56;4.27;;;1.50;;
16113;SDS011;8161;-33.910;151.156;2023-07-29T03:22:23;3.60;;;1.33;;
16113;SDS011;8161;-33.910;151.156;2023-07-29T03:24:50;2.45;;;1.40;;
16113;SDS011;8161;-33.910;151.156;2023-07-29T03:27:18;3.83;;;1.65;;
16113;SDS011;8161;-33.910;151.156;2023-07-29T03:29:45;3.47;;;1.70;;
16113;SDS011;8161;-33.910;151.156;2023-07-29T03:32:13;3.80;;;1.77;;
16113;SDS011;8161;-33.910;151.156;2023-07-29T03:34:40;4.57;;;1.60;;
16113;SDS011;8161;-33.910;151.156;2023-07-29T03:37:07;5.72;;;1.70;;
16113;SDS011;8161;-33.910;151.156;2023-07-29T03:39:34;4.68;;;1.30;;
16113;SDS011;8161;-33.910;151.156;2023-07-29T03:42:02;4.50;;;1.50;;
16113;SDS011;8161;-33.910;151.156;2023-07-29T03:44:29;4.93;;;1.37;;
16113;SDS011;8161;-33.910;151.156;2023-07-29T03:46:57;6.53;;;1.42;;
16113;SDS011;8161;-33.910;151.156;2023-07-29T03:49:24;5.15;;;1.70;;
16113;SDS011;8161;-33.910;151.156;2023-07-29T03:51:51;3.85;;;1.20;;
16113;SDS011;8161;-33.910;151.156;2023-07-29T03:54:18;4.55;;;1.70;;
16113;SDS011;8161;-33.910;151.156;2023-07-29T03:56:46;4.95;;;1.70;;
16113;SDS011;8161;-33.910;151.156;2023-07-29T03:59:13;8.20;;;2.78;;
16113;SDS011;8161;-33.910;151.156;2023-07-29T04:01:40;6.22;;;1.85;;
16113;SDS011;8161;-33.910;151.156;2023-07-29T04:04:07;3.25;;;1.38;;
16113;SDS011;8161;-33.910;151.156;2023-07-29T04:06:34;3.10;;;1.30;;
16113;SDS011;8161;-33.910;151.156;2023-07-29T04:09:02;3.78;;;1.50;;
16113;SDS011;8161;-33.910;151.156;2023-07-29T04:11:29;4.55;;;1.33;;
16113;SDS011;8161;-33.910;151.156;2023-07-29T04:13:56;4.55;;;1.42;;
16113;SDS011;8161;-33.910;151.156;2023-07-29T04:16:24;3.17;;;1.40;;
16113;SDS011;8161;-33.910;151.156;2023-07-29T04:18:51;4.80;;;1.70;;
16113;SDS011;8161;-33.910;151.156;2023-07-29T04:21:19;6.37;;;1.40;;
16113;SDS011;8161;-33.910;151.156;2023-07-29T04:23:46;3.13;;;1.10;;
16113;SDS011;8161;-33.910;151.156;2023-07-29T04:26:13;4.25;;;1.25;;
16113;SDS011;8161;-33.910;151.156;2023-07-29T04:28:40;3.95;;;1.30;;
16113;SDS011;8161;-33.910;151.156;2023-07-29T04:31:08;5.30;;;1.55;;
16113;SDS011;8161;-33.910;151.156;2023-07-29T04:33:35;4.43;;;1.70;;
16113;SDS011;8161;-33.910;151.156;2023-07-29T04:36:03;4.57;;;1.53;;
16113;SDS011;8161;-33.910;151.156;2023-07-29T04:38:31;4.33;;;1.67;;
16113;SDS011;8161;-33.910;151.156;2023-07-29T04:40:59;3.20;;;1.33;;
16113;SDS011;8161;-33.910;151.156;2023-07-29T04:43:30;5.77;;;1.90;;
16113;SDS011;8161;-33.910;151.156;2023-07-29T04:45:58;3.83;;;1.55;;
16113;SDS011;8161;-33.910;151.156;2023-07-29T04:48:26;2.67;;;1.38;;
16113;SDS011;8161;-33.910;151.156;2023-07-29T04:50:53;4.57;;;1.38;;
16113;SDS011;8161;-33.910;151.156;2023-07-29T04:53:20;4.60;;;1.30;;
16113;SDS011;8161;-33.910;151.156;2023-07-29T04:55:47;3.20;;;1.35;;
16113;SDS011;8161;-33.910;151.156;2023-07-29T04:58:15;4.20;;;1.85;;
16113;SDS011;8161;-33.910;151.156;2023-07-29T05:00:42;5.60;;;1.35;;
16113;SDS011;8161;-33.910;151.156;2023-07-29T05:03:09;2.90;;;1.30;;
16113;SDS011;8161;-33.910;151.156;2023-07-29T05:05:36;3.70;;;1.25;;
16113;SDS011;8161;-33.910;151.156;2023-07-29T05:08:03;4.85;;;1.20;;
16113;SDS011;8161;-33.910;151.156;2023-07-29T05:10:31;4.45;;;1.40;;
16113;SDS011;8161;-33.910;151.156;2023-07-29T05:12:58;2.87;;;0.97;;
16113;SDS011;8161;-33.910;151.156;2023-07-29T05:15:25;3.50;;;1.00;;
16113;SDS011;8161;-33.910;151.156;2023-07-29T05:17:52;3.80;;;1.30;;
16113;SDS011;8161;-33.910;151.156;2023-07-29T05:20:19;4.70;;;1.52;;
16113;SDS011;8161;-33.910;151.156;2023-07-29T05:22:50;3.45;;;1.20;;
16113;SDS011;8161;-33.910;151.156;2023-07-29T05:25:20;5.07;;;1.13;;
16113;SDS011;8161;-33.910;151.156;2023-07-29T05:27:47;2.60;;;1.10;;
16113;SDS011;8161;-33.910;151.156;2023-07-29T05:30:14;3.97;;;1.17;;
16113;SDS011;8161;-33.910;151.156;2023-07-29T05:32:42;3.33;;;1.20;;
16113;SDS011;8161;-33.910;151.156;2023-07-29T05:35:12;4.85;;;1.25;;
16113;SDS011;8161;-33.910;151.156;2023-07-29T05:37:40;4.25;;;1.30;;
16113;SDS011;8161;-33.910;151.156;2023-07-29T05:40:08;4.68;;;1.30;;
16113;SDS011;8161;-33.910;151.156;2023-07-29T05:42:35;3.47;;;1.35;;
16113;SDS011;8161;-33.910;151.156;2023-07-29T05:45:02;4.70;;;1.10;;
16113;SDS011;8161;-33.910;151.156;2023-07-29T05:47:30;3.92;;;1.10;;
16113;SDS011;8161;-33.910;151.156;2023-07-29T05:49:57;4.55;;;1.50;;
16113;SDS011;8161;-33.910;151.156;2023-07-29T05:52:25;7.80;;;1.40;;
16113;SDS011;8161;-33.910;151.156;2023-07-29T05:54:52;4.60;;;1.33;;
16113;SDS011;8161;-33.910;151.156;2023-07-29T05:57:19;5.85;;;1.30;;
16113;SDS011;8161;-33.910;151.156;2023-07-29T05:59:47;6.40;;;1.27;;
16113;SDS011;8161;-33.910;151.156;2023-07-29T06:02:14;6.47;;;1.27;;
16113;SDS011;8161;-33.910;151.156;2023-07-29T06:04:41;3.08;;;1.10;;
16113;SDS011;8161;-33.910;151.156;2023-07-29T06:07:08;4.93;;;1.67;;
16113;SDS011;8161;-33.910;151.156;2023-07-29T06:09:36;3.60;;;1.20;;
16113;SDS011;8161;-33.910;151.156;2023-07-29T06:12:03;4.80;;;1.40;;
16113;SDS011;8161;-33.910;151.156;2023-07-29T06:14:31;2.58;;;1.00;;
16113;SDS011;8161;-33.910;151.156;2023-07-29T06:16:58;2.35;;;1.00;;
16113;SDS011;8161;-33.910;151.156;2023-07-29T06:19:26;4.83;;;1.20;;
16113;SDS011;8161;-33.910;151.156;2023-07-29T06:21:54;3.47;;;1.00;;
16113;SDS011;8161;-33.910;151.156;2023-07-29T06:24:22;3.00;;;1.20;;
16113;SDS011;8161;-33.910;151.156;2023-07-29T06:26:49;2.95;;;1.10;;
16113;SDS011;8161;-33.910;151.156;2023-07-29T06:29:16;2.67;;;1.00;;
16113;SDS011;8161;-33.910;151.156;2023-07-29T06:31:43;2.50;;;1.02;;
16113;SDS011;8161;-33.910;151.156;2023-07-29T06:34:10;4.15;;;1.20;;
16113;SDS011;8161;-33.910;151.156;2023-07-29T06:36:38;4.38;;;0.95;;
16113;SDS011;8161;-33.910;151.156;2023-07-29T06:39:05;3.28;;;1.30;;
16113;SDS011;8161;-33.910;151.156;2023-07-29T06:41:32;3.75;;;1.60;;
16113;SDS011;8161;-33.910;151.156;2023-07-29T06:43:59;4.63;;;1.40;;
16113;SDS011;8161;-33.910;151.156;2023-07-29T06:46:26;6.50;;;1.60;;
16113;SDS011;8161;-33.910;151.156;2023-07-29T06:48:54;3.60;;;1.40;;
16113;SDS011;8161;-33.910;151.156;2023-07-29T06:51:21;4.60;;;1.45;;
16113;SDS011;8161;-33.910;151.156;2023-07-29T06:53:48;2.60;;;1.13;;
16113;SDS011;8161;-33.910;151.156;2023-07-29T06:56:15;2.47;;;1.25;;
16113;SDS011;8161;-33.910;151.156;2023-07-29T06:58:42;4.53;;;1.20;;
16113;SDS011;8161;-33.910;151.156;2023-07-29T07:01:13;4.65;;;1.33;;
16113;SDS011;8161;-33.910;151.156;2023-07-29T07:03:40;3.65;;;1.45;;
16113;SDS011;8161;-33.910;151.156;2023-07-29T07:06:07;3.22;;;1.40;;
16113;SDS011;8161;-33.910;151.156;2023-07-29T07:08:34;3.67;;;1.77;;
16113;SDS011;8161;-33.910;151.156;2023-07-29T07:11:02;4.33;;;1.20;;
16113;SDS011;8161;-33.910;151.156;2023-07-29T07:13:29;5.18;;;1.60;;
16113;SDS011;8161;-33.910;151.156;2023-07-29T07:15:56;5.60;;;1.70;;
16113;SDS011;8161;-33.910;151.156;2023-07-29T07:18:23;4.15;;;1.65;;
16113;SDS011;8161;-33.910;151.156;2023-07-29T07:20:51;2.55;;;1.52;;
16113;SDS011;8161;-33.910;151.156;2023-07-29T07:23:18;3.50;;;1.80;;
16113;SDS011;8161;-33.910;151.156;2023-07-29T07:25:45;3.30;;;1.60;;
16113;SDS011;8161;-33.910;151.156;2023-07-29T07:28:13;5.07;;;2.00;;
16113;SDS011;8161;-33.910;151.156;2023-07-29T07:30:40;2.53;;;1.67;;
16113;SDS011;8161;-33.910;151.156;2023-07-29T07:33:07;4.60;;;1.90;;
16113;SDS011;8161;-33.910;151.156;2023-07-29T07:35:35;5.30;;;2.00;;
16113;SDS011;8161;-33.910;151.156;2023-07-29T07:38:02;5.00;;;2.17;;
16113;SDS011;8161;-33.910;151.156;2023-07-29T07:40:33;5.95;;;2.35;;
16113;SDS011;8161;-33.910;151.156;2023-07-29T07:43:00;5.80;;;2.28;;
16113;SDS011;8161;-33.910;151.156;2023-07-29T07:45:27;3.97;;;2.25;;
16113;SDS011;8161;-33.910;151.156;2023-07-29T07:47:55;7.43;;;2.58;;
16113;SDS011;8161;-33.910;151.156;2023-07-29T07:50:22;6.95;;;2.25;;
16113;SDS011;8161;-33.910;151.156;2023-07-29T07:52:49;6.47;;;2.53;;
16113;SDS011;8161;-33.910;151.156;2023-07-29T07:55:17;5.55;;;2.60;;
16113;SDS011;8161;-33.910;151.156;2023-07-29T07:57:44;5.68;;;2.50;;
16113;SDS011;8161;-33.910;151.156;2023-07-29T08:00:14;8.68;;;3.25;;
16113;SDS011;8161;-33.910;151.156;2023-07-29T08:02:43;5.30;;;2.63;;
16113;SDS011;8161;-33.910;151.156;2023-07-29T08:05:11;7.30;;;3.22;;
16113;SDS011;8161;-33.910;151.156;2023-07-29T08:07:38;7.63;;;3.30;;
16113;SDS011;8161;-33.910;151.156;2023-07-29T08:10:06;6.75;;;3.65;;
16113;SDS011;8161;-33.910;151.156;2023-07-29T08:12:33;7.00;;;3.83;;
16113;SDS011;8161;-33.910;151.156;2023-07-29T08:15:01;5.38;;;3.38;;
16113;SDS011;8161;-33.910;151.156;2023-07-29T08:17:28;6.20;;;3.35;;
16113;SDS011;8161;-33.910;151.156;2023-07-29T08:19:55;5.18;;;2.90;;
16113;SDS011;8161;-33.910;151.156;2023-07-29T08:22:23;6.47;;;2.97;;
16113;SDS011;8161;-33.910;151.156;2023-07-29T08:24:50;6.87;;;3.13;;
16113;SDS011;8161;-33.910;151.156;2023-07-29T08:27:18;7.75;;;3.35;;
16113;SDS011;8161;-33.910;151.156;2023-07-29T08:29:45;7.43;;;3.15;;
16113;SDS011;8161;-33.910;151.156;2023-07-29T08:32:15;6.47;;;3.17;;
16113;SDS011;8161;-33.910;151.156;2023-07-29T08:34:42;12.85;;;3.90;;
16113;SDS011;8161;-33.910;151.156;2023-07-29T08:37:12;7.20;;;3.80;;
16113;SDS011;8161;-33.910;151.156;2023-07-29T08:39:40;5.88;;;3.67;;
16113;SDS011;8161;-33.910;151.156;2023-07-29T08:42:07;7.45;;;3.70;;
16113;SDS011;8161;-33.910;151.156;2023-07-29T08:44:43;7.10;;;3.60;;
16113;SDS011;8161;-33.910;151.156;2023-07-29T08:47:10;8.93;;;3.67;;
16113;SDS011;8161;-33.910;151.156;2023-07-29T08:49:41;11.07;;;3.55;;
16113;SDS011;8161;-33.910;151.156;2023-07-29T08:52:11;6.57;;;3.40;;
16113;SDS011;8161;-33.910;151.156;2023-07-29T08:54:39;6.10;;;3.45;;
16113;SDS011;8161;-33.910;151.156;2023-07-29T08:57:06;7.43;;;3.85;;
16113;SDS011;8161;-33.910;151.156;2023-07-29T08:59:33;9.00;;;5.13;;
16113;SDS011;8161;-33.910;151.156;2023-07-29T09:02:01;10.63;;;6.10;;
16113;SDS011;8161;-33.910;151.156;2023-07-29T09:04:28;10.50;;;5.93;;
16113;SDS011;8161;-33.910;151.156;2023-07-29T09:06:55;9.68;;;4.85;;
16113;SDS011;8161;-33.910;151.156;2023-07-29T09:09:25;8.65;;;5.60;;
16113;SDS011;8161;-33.910;151.156;2023-07-29T09:11:52;10.63;;;5.68;;
16113;SDS011;8161;-33.910;151.156;2023-07-29T09:14:20;10.68;;;4.55;;
16113;SDS011;8161;-33.910;151.156;2023-07-29T09:16:47;9.13;;;4.45;;
16113;SDS011;8161;-33.910;151.156;2023-07-29T09:19:14;8.00;;;4.50;;
16113;SDS011;8161;-33.910;151.156;2023-07-29T09:21:41;10.80;;;4.63;;
16113;SDS011;8161;-33.910;151.156;2023-07-29T09:24:09;9.30;;;4.53;;
16113;SDS011;8161;-33.910;151.156;2023-07-29T09:26:38;9.38;;;4.93;;
16113;SDS011;8161;-33.910;151.156;2023-07-29T09:29:06;8.13;;;4.80;;
16113;SDS011;8161;-33.910;151.156;2023-07-29T09:31:33;10.25;;;4.47;;
16113;SDS011;8161;-33.910;151.156;2023-07-29T09:34:01;7.90;;;4.18;;
16113;SDS011;8161;-33.910;151.156;2023-07-29T09:36:32;7.30;;;4.13;;
16113;SDS011;8161;-33.910;151.156;2023-07-29T09:39:01;7.18;;;4.07;;
16113;SDS011;8161;-33.910;151.156;2023-07-29T09:41:29;7.00;;;3.80;;
16113;SDS011;8161;-33.910;151.156;2023-07-29T09:44:00;6.05;;;3.75;;
16113;SDS011;8161;-33.910;151.156;2023-07-29T09:46:34;7.70;;;4.18;;
16113;SDS011;8161;-33.910;151.156;2023-07-29T09:49:02;8.57;;;3.90;;
16113;SDS011;8161;-33.910;151.156;2023-07-29T09:51:31;6.55;;;3.63;;
16113;SDS011;8161;-33.910;151.156;2023-07-29T09:54:03;7.82;;;4.28;;
16113;SDS011;8161;-33.910;151.156;2023-07-29T09:56:30;8.93;;;4.15;;
16113;SDS011;8161;-33.910;151.156;2023-07-29T09:58:58;8.98;;;4.38;;
16113;SDS011;8161;-33.910;151.156;2023-07-29T10:01:25;8.20;;;4.50;;
16113;SDS011;8161;-33.910;151.156;2023-07-29T10:03:52;7.50;;;3.65;;
16113;SDS011;8161;-33.910;151.156;2023-07-29T10:06:22;8.15;;;4.03;;
16113;SDS011;8161;-33.910;151.156;2023-07-29T10:08:50;8.03;;;4.20;;
16113;SDS011;8161;-33.910;151.156;2023-07-29T10:11:18;8.90;;;4.63;;
16113;SDS011;8161;-33.910;151.156;2023-07-29T10:13:48;9.40;;;4.30;;
16113;SDS011;8161;-33.910;151.156;2023-07-29T10:16:15;7.88;;;4.35;;
16113;SDS011;8161;-33.910;151.156;2023-07-29T10:18:42;7.47;;;4.47;;
16113;SDS011;8161;-33.910;151.156;2023-07-29T10:21:10;9.73;;;4.70;;
16113;SDS011;8161;-33.910;151.156;2023-07-29T10:23:41;9.63;;;5.80;;
16113;SDS011;8161;-33.910;151.156;2023-07-29T10:26:15;11.75;;;5.18;;
16113;SDS011;8161;-33.910;151.156;2023-07-29T10:28:46;12.98;;;6.30;;
16113;SDS011;8161;-33.910;151.156;2023-07-29T10:31:15;12.17;;;6.60;;
16113;SDS011;8161;-33.910;151.156;2023-07-29T10:33:43;13.47;;;7.93;;
16113;SDS011;8161;-33.910;151.156;2023-07-29T10:36:11;15.27;;;9.00;;
16113;SDS011;8161;-33.910;151.156;2023-07-29T10:38:39;15.23;;;8.52;;
16113;SDS011;8161;-33.910;151.156;2023-07-29T10:41:06;13.48;;;7.97;;
16113;SDS011;8161;-33.910;151.156;2023-07-29T10:43:35;14.80;;;8.35;;
16113;SDS011;8161;-33.910;151.156;2023-07-29T10:48:53;14.73;;;7.13;;
16113;SDS011;8161;-33.910;151.156;2023-07-29T10:53:52;12.38;;;7.70;;
16113;SDS011;8161;-33.910;151.156;2023-07-29T10:56:33;14.00;;;7.90;;
16113;SDS011;8161;-33.910;151.156;2023-07-29T11:15:22;26.75;;;14.25;;
16113;SDS011;8161;-33.910;151.156;2023-07-29T11:17:52;27.90;;;14.50;;
16113;SDS011;8161;-33.910;151.156;2023-07-29T11:20:22;28.85;;;14.85;;
16113;SDS011;8161;-33.910;151.156;2023-07-29T11:22:57;28.83;;;15.68;;
16113;SDS011;8161;-33.910;151.156;2023-07-29T11:25:31;28.95;;;16.77;;
16113;SDS011;8161;-33.910;151.156;2023-07-29T11:28:01;34.13;;;20.13;;
16113;SDS011;8161;-33.910;151.156;2023-07-29T11:30:29;36.47;;;20.77;;
16113;SDS011;8161;-33.910;151.156;2023-07-29T11:32:57;35.70;;;22.05;;
16113;SDS011;8161;-33.910;151.156;2023-07-29T11:35:24;33.17;;;20.50;;
16113;SDS011;8161;-33.910;151.156;2023-07-29T11:37:52;32.57;;;20.60;;
16113;SDS011;8161;-33.910;151.156;2023-07-29T11:40:20;32.10;;;20.42;;
16113;SDS011;8161;-33.910;151.156;2023-07-29T11:42:52;28.13;;;16.90;;
16113;SDS011;8161;-33.910;151.156;2023-07-29T11:45:22;18.67;;;10.75;;
16113;SDS011;8161;-33.910;151.156;2023-07-29T11:47:49;17.60;;;9.80;;
16113;SDS011;8161;-33.910;151.156;2023-07-29T11:50:16;17.15;;;9.10;;
16113;SDS011;8161;-33.910;151.156;2023-07-29T11:52:44;15.18;;;7.90;;
16113;SDS011;8161;-33.910;151.156;2023-07-29T11:55:12;14.98;;;8.10;;
16113;SDS011;8161;-33.910;151.156;2023-07-29T11:57:40;14.98;;;7.25;;
16113;SDS011;8161;-33.910;151.156;2023-07-29T12:00:09;11.30;;;6.53;;
16113;SDS011;8161;-33.910;151.156;2023-07-29T12:02:38;11.82;;;6.45;;
16113;SDS011;8161;-33.910;151.156;2023-07-29T12:05:07;11.00;;;6.40;;
16113;SDS011;8161;-33.910;151.156;2023-07-29T12:07:35;11.50;;;6.38;;
16113;SDS011;8161;-33.910;151.156;2023-07-29T12:10:05;12.55;;;6.88;;
16113;SDS011;8161;-33.910;151.156;2023-07-29T12:12:45;16.10;;;7.22;;
16113;SDS011;8161;-33.910;151.156;2023-07-29T12:15:13;13.88;;;7.75;;
16113;SDS011;8161;-33.910;151.156;2023-07-29T12:18:01;13.95;;;8.23;;
16113;SDS011;8161;-33.910;151.156;2023-07-29T12:20:29;15.90;;;8.13;;
16113;SDS011;8161;-33.910;151.156;2023-07-29T12:22:57;14.65;;;8.10;;
16113;SDS011;8161;-33.910;151.156;2023-07-29T12:25:27;16.97;;;8.07;;
16113;SDS011;8161;-33.910;151.156;2023-07-29T12:27:54;17.15;;;8.18;;
16113;SDS011;8161;-33.910;151.156;2023-07-29T12:30:24;12.57;;;7.53;;
16113;SDS011;8161;-33.910;151.156;2023-07-29T12:32:52;13.10;;;7.40;;
16113;SDS011;8161;-33.910;151.156;2023-07-29T12:35:19;12.48;;;7.10;;
16113;SDS011;8161;-33.910;151.156;2023-07-29T12:37:46;11.65;;;6.30;;
16113;SDS011;8161;-33.910;151.156;2023-07-29T12:40:24;10.80;;;6.65;;
16113;SDS011;8161;-33.910;151.156;2023-07-29T12:42:52;13.00;;;6.37;;
16113;SDS011;8161;-33.910;151.156;2023-07-29T12:45:23;10.95;;;6.57;;
16113;SDS011;8161;-33.910;151.156;2023-07-29T12:47:54;10.47;;;5.83;;
16113;SDS011;8161;-33.910;151.156;2023-07-29T12:50:21;16.30;;;6.25;;
16113;SDS011;8161;-33.910;151.156;2023-07-29T12:52:48;11.73;;;5.70;;
16113;SDS011;8161;-33.910;151.156;2023-07-29T12:55:15;12.23;;;5.90;;
16113;SDS011;8161;-33.910;151.156;2023-07-29T12:57:43;10.13;;;5.70;;
16113;SDS011;8161;-33.910;151.156;2023-07-29T13:00:10;11.52;;;5.78;;
16113;SDS011;8161;-33.910;151.156;2023-07-29T13:02:37;9.75;;;5.13;;
16113;SDS011;8161;-33.910;151.156;2023-07-29T13:05:05;11.70;;;5.90;;
16113;SDS011;8161;-33.910;151.156;2023-07-29T13:07:35;12.05;;;6.15;;
16113;SDS011;8161;-33.910;151.156;2023-07-29T13:10:03;11.88;;;5.97;;
16113;SDS011;8161;-33.910;151.156;2023-07-29T13:12:31;9.95;;;5.93;;
16113;SDS011;8161;-33.910;151.156;2023-07-29T13:14:58;9.15;;;5.65;;
16113;SDS011;8161;-33.910;151.156;2023-07-29T13:17:25;11.40;;;6.22;;
16113;SDS011;8161;-33.910;151.156;2023-07-29T13:19:53;10.50;;;5.90;;
16113;SDS011;8161;-33.910;151.156;2023-07-29T13:22:20;11.38;;;6.10;;
16113;SDS011;8161;-33.910;151.156;2023-07-29T13:24:51;10.00;;;5.80;;
16113;SDS011;8161;-33.910;151.156;2023-07-29T13:27:18;13.45;;;6.30;;
16113;SDS011;8161;-33.910;151.156;2023-07-29T13:29:54;11.48;;;6.43;;
16113;SDS011;8161;-33.910;151.156;2023-07-29T13:32:21;12.68;;;6.38;;
16113;SDS011;8161;-33.910;151.156;2023-07-29T13:34:51;11.18;;;6.53;;
16113;SDS011;8161;-33.910;151.156;2023-07-29T13:37:18;10.25;;;5.78;;
16113;SDS011;8161;-33.910;151.156;2023-07-29T13:39:45;10.57;;;6.50;;
16113;SDS011;8161;-33.910;151.156;2023-07-29T13:42:12;10.38;;;6.18;;
16113;SDS011;8161;-33.910;151.156;2023-07-29T13:44:40;12.35;;;6.90;;
16113;SDS011;8161;-33.910;151.156;2023-07-29T13:47:07;12.90;;;6.50;;
16113;SDS011;8161;-33.910;151.156;2023-07-29T13:49:34;11.43;;;6.85;;
16113;SDS011;8161;-33.910;151.156;2023-07-29T13:52:01;11.80;;;7.28;;
16113;SDS011;8161;-33.910;151.156;2023-07-29T13:54:28;12.13;;;6.95;;
16113;SDS011;8161;-33.910;151.156;2023-07-29T13:56:55;12.88;;;7.70;;
16113;SDS011;8161;-33.910;151.156;2023-07-29T13:59:23;12.32;;;7.68;;
16113;SDS011;8161;-33.910;151.156;2023-07-29T14:01:50;12.07;;;7.65;;
16113;SDS011;8161;-33.910;151.156;2023-07-29T14:04:20;13.18;;;8.10;;
16113;SDS011;8161;-33.910;151.156;2023-07-29T14:06:48;15.52;;;8.52;;
16113;SDS011;8161;-33.910;151.156;2023-07-29T14:09:19;13.77;;;8.27;;
16113;SDS011;8161;-33.910;151.156;2023-07-29T14:11:46;13.13;;;7.63;;
16113;SDS011;8161;-33.910;151.156;2023-07-29T14:14:14;15.48;;;7.88;;
16113;SDS011;8161;-33.910;151.156;2023-07-29T14:16:41;13.27;;;7.90;;
16113;SDS011;8161;-33.910;151.156;2023-07-29T14:19:08;12.40;;;7.63;;
16113;SDS011;8161;-33.910;151.156;2023-07-29T14:21:36;14.23;;;7.80;;
16113;SDS011;8161;-33.910;151.156;2023-07-29T14:24:03;14.73;;;7.60;;
16113;SDS011;8161;-33.910;151.156;2023-07-29T14:26:31;15.13;;;7.88;;
16113;SDS011;8161;-33.910;151.156;2023-07-29T14:28:58;17.33;;;8.27;;
16113;SDS011;8161;-33.910;151.156;2023-07-29T14:31:25;15.50;;;8.88;;
16113;SDS011;8161;-33.910;151.156;2023-07-29T14:33:52;15.50;;;8.32;;
16113;SDS011;8161;-33.910;151.156;2023-07-29T14:36:21;17.42;;;9.05;;
16113;SDS011;8161;-33.910;151.156;2023-07-29T14:38:51;14.88;;;8.40;;
16113;SDS011;8161;-33.910;151.156;2023-07-29T14:41:18;14.27;;;7.70;;
16113;SDS011;8161;-33.910;151.156;2023-07-29T14:43:45;15.38;;;8.60;;
16113;SDS011;8161;-33.910;151.156;2023-07-29T14:46:13;14.60;;;8.55;;
16113;SDS011;8161;-33.910;151.156;2023-07-29T14:48:40;13.93;;;8.27;;
16113;SDS011;8161;-33.910;151.156;2023-07-29T14:51:07;14.10;;;8.43;;